Time;durP1;ratioP1;P1;durP2;ratioP2;P2;SDS_P1;SDS_P2;PMS_P1;PMS_P2;Temp;Humidity;BMP_temperature;BMP_pressure;BME280_temperature;BME280_humidity;BME280_pressure;Samples;Min_cycle;Max_cycle;Signal;HPM_P1;HPM_P2
2022/10/29 00:01:49;;;;;;;28.77;8.00;;;14.50;99.90;;;;;;5059317;28;20052;-87
2022/10/29 00:04:15;;;;;;;33.03;7.97;;;14.50;99.90;;;;;;5041559;28;20048;-87
2022/10/29 00:06:40;;;;;;;35.25;8.68;;;14.50;99.90;;;;;;5057597;28;20041;-87
2022/10/29 00:09:06;;;;;;;25.38;7.47;;;14.50;99.90;;;;;;5039955;28;20159;-86
2022/10/29 00:11:33;;;;;;;25.80;8.00;;;14.40;99.90;;;;;;5039412;28;20111;-88
2022/10/29 00:14:00;;;;;;;38.15;8.32;;;14.40;99.90;;;;;;5039021;28;20048;-87
2022/10/29 00:16:35;;;;;;;31.40;9.27;;;14.40;99.90;;;;;;5056408;28;20094;-87
2022/10/29 00:19:01;;;;;;;37.17;9.27;;;14.40;99.90;;;;;;5039628;28;20044;-87
2022/10/29 00:21:27;;;;;;;36.63;9.73;;;14.30;99.90;;;;;;5057898;28;20306;-87
2022/10/29 00:23:53;;;;;;;29.48;8.35;;;14.30;99.90;;;;;;5056571;28;20178;-88
2022/10/29 00:26:20;;;;;;;32.05;8.32;;;14.30;99.90;;;;;;5056480;28;20040;-87
2022/10/29 00:28:47;;;;;;;31.77;7.95;;;14.30;99.90;;;;;;5039116;28;20365;-87
2022/10/29 00:31:17;;;;;;;24.17;7.90;;;14.20;99.90;;;;;;5040455;28;20416;-87
2022/10/29 00:33:44;;;;;;;37.92;9.10;;;14.30;99.90;;;;;;5038801;28;20512;-87
2022/10/29 00:36:20;;;;;;;29.63;8.07;;;14.20;99.90;;;;;;5032130;28;20029;-87
2022/10/29 00:38:47;;;;;;;32.75;8.82;;;14.20;99.90;;;;;;5036629;28;20123;-87
2022/10/29 00:41:24;;;;;;;28.70;8.55;;;14.20;99.90;;;;;;5039063;28;20404;-87
2022/10/29 00:44:11;;;;;;;32.75;9.20;;;14.20;99.90;;;;;;5038260;28;20099;-88
2022/10/29 00:46:38;;;;;;;26.80;8.45;;;14.10;99.90;;;;;;5056121;28;20072;-88
2022/10/29 00:49:03;;;;;;;36.65;9.35;;;14.10;99.90;;;;;;5021754;28;20045;-88
2022/10/29 00:51:31;;;;;;;28.33;8.38;;;14.10;99.90;;;;;;5038935;28;20055;-88
2022/10/29 00:54:02;;;;;;;33.65;8.93;;;14.10;99.90;;;;;;5033235;28;20387;-87
2022/10/29 00:56:32;;;;;;;35.72;9.98;;;14.10;99.90;;;;;;5020370;28;20033;-88
2022/10/29 00:58:58;;;;;;;39.67;9.65;;;14.80;99.90;;;;;;5026474;28;20045;-88
2022/10/29 01:01:24;;;;;;;37.88;9.95;;;14.10;99.90;;;;;;5037436;28;20045;-87
2022/10/29 01:03:51;;;;;;;61.70;9.93;;;14.00;99.90;;;;;;5020676;28;20040;-87
2022/10/29 01:06:17;;;;;;;43.83;10.40;;;14.00;99.90;;;;;;5056602;28;20041;-87
2022/10/29 01:08:43;;;;;;;40.70;10.82;;;14.00;99.90;;;;;;5056210;28;20048;-87
2022/10/29 01:11:12;;;;;;;35.40;10.77;;;14.00;99.90;;;;;;5055511;28;20040;-87
2022/10/29 01:13:53;;;;;;;38.50;10.50;;;13.90;99.90;;;;;;5038496;28;20405;-87
2022/10/29 01:16:44;;;;;;;47.95;11.25;;;14.00;99.90;;;;;;5034141;28;20033;-88
2022/10/29 01:19:25;;;;;;;51.95;11.93;;;13.90;99.90;;;;;;5019526;28;20129;-87
2022/10/29 01:22:00;;;;;;;69.10;11.20;;;13.90;99.90;;;;;;5035919;28;20415;-87
2022/10/29 01:24:25;;;;;;;56.53;11.35;;;13.90;99.90;;;;;;5019303;28;20091;-88
2022/10/29 01:27:09;;;;;;;65.32;11.57;;;13.90;99.90;;;;;;5018686;28;20077;-88
2022/10/29 01:29:38;;;;;;;58.17;11.05;;;13.90;99.90;;;;;;5018387;28;20044;-87
2022/10/29 01:32:12;;;;;;;71.78;13.07;;;13.90;99.90;;;;;;5018300;28;20132;-87
2022/10/29 01:34:41;;;;;;;66.18;12.45;;;13.90;99.90;;;;;;5018424;28;20048;-87
2022/10/29 01:37:22;;;;;;;108.03;13.15;;;13.90;99.90;;;;;;5018458;28;20049;-87
2022/10/29 01:40:07;;;;;;;97.32;12.63;;;13.90;99.90;;;;;;5021126;28;20069;-88
2022/10/29 01:42:39;;;;;;;141.95;13.32;;;13.80;99.90;;;;;;5051324;28;20086;-88
2022/10/29 01:45:15;;;;;;;168.98;14.45;;;13.90;99.90;;;;;;5037480;28;20041;-88
2022/10/29 01:47:50;;;;;;;163.10;14.85;;;13.80;99.90;;;;;;5022377;28;20048;-88
2022/10/29 01:50:20;;;;;;;102.50;12.68;;;13.80;99.90;;;;;;5039500;28;20040;-88
2022/10/29 01:52:47;;;;;;;172.10;14.32;;;13.80;99.90;;;;;;5030818;28;20417;-87
2022/10/29 01:55:19;;;;;;;78.68;12.30;;;13.80;99.90;;;;;;5045677;28;20041;-87
2022/10/29 01:57:45;;;;;;;135.98;15.43;;;13.80;99.90;;;;;;5030671;28;20057;-87
2022/10/29 02:00:14;;;;;;;87.40;14.05;;;13.70;99.90;;;;;;5026541;28;20037;-88
2022/10/29 02:03:01;;;;;;;85.65;13.23;;;13.70;99.90;;;;;;5039596;28;20045;-88
2022/10/29 02:05:39;;;;;;;110.40;14.48;;;13.70;99.90;;;;;;5040059;28;20040;-87
2022/10/29 02:08:13;;;;;;;139.20;14.43;;;13.70;99.90;;;;;;5057896;28;20041;-88
2022/10/29 02:11:02;;;;;;;126.97;13.50;;;13.70;99.90;;;;;;5055250;28;20048;-88
2022/10/29 02:13:34;;;;;;;85.78;13.27;;;13.70;99.90;;;;;;5029304;28;20049;-87
2022/10/29 02:16:05;;;;;;;126.15;13.68;;;13.60;99.90;;;;;;5041501;28;20047;-87
2022/10/29 02:18:48;;;;;;;128.82;14.07;;;13.60;99.90;;;;;;5028348;28;20045;-87
2022/10/29 02:21:19;;;;;;;120.85;14.55;;;13.60;99.90;;;;;;5022746;28;20389;-88
2022/10/29 02:23:45;;;;;;;154.65;13.95;;;13.50;99.90;;;;;;5038703;28;20048;-88
2022/10/29 02:26:11;;;;;;;129.40;13.20;;;13.50;99.90;;;;;;5038927;28;20493;-88
2022/10/29 02:28:37;;;;;;;143.93;14.30;;;13.50;99.90;;;;;;5036521;28;20131;-88
2022/10/29 02:31:03;;;;;;;214.73;15.30;;;13.50;99.90;;;;;;5040445;28;20535;-87
2022/10/29 02:33:29;;;;;;;144.38;12.85;;;13.50;99.90;;;;;;5042429;28;20120;-88
2022/10/29 02:35:54;;;;;;;240.77;16.50;;;13.50;99.90;;;;;;5048993;28;20503;-88
2022/10/29 02:38:20;;;;;;;196.57;14.00;;;13.40;99.90;;;;;;5022006;28;20067;-89
2022/10/29 02:40:46;;;;;;;142.00;12.00;;;13.40;99.90;;;;;;5028061;28;20036;-87
2022/10/29 02:43:11;;;;;;;104.50;14.32;;;13.40;99.90;;;;;;5027135;28;20132;-86
2022/10/29 02:45:37;;;;;;;165.07;15.57;;;13.40;99.90;;;;;;5037019;28;20039;-88
2022/10/29 02:48:03;;;;;;;167.43;13.73;;;13.30;99.90;;;;;;5023515;28;20076;-88
2022/10/29 02:50:29;;;;;;;218.65;14.45;;;13.40;99.90;;;;;;5038275;28;20043;-88
2022/10/29 02:52:54;;;;;;;168.32;15.63;;;13.40;99.90;;;;;;5038902;28;20060;-88
2022/10/29 02:55:20;;;;;;;239.10;16.90;;;13.40;99.90;;;;;;5039673;28;20037;-87
2022/10/29 02:57:46;;;;;;;158.10;15.40;;;13.40;99.90;;;;;;5044566;28;20143;-88
2022/10/29 03:00:12;;;;;;;134.32;15.23;;;13.40;99.90;;;;;;5032844;28;20127;-88
2022/10/29 03:02:38;;;;;;;141.13;14.00;;;13.40;99.90;;;;;;5037437;28;20040;-88
2022/10/29 03:05:05;;;;;;;149.35;13.60;;;13.40;99.90;;;;;;5020033;28;20124;-88
2022/10/29 03:07:35;;;;;;;114.75;12.98;;;13.50;99.90;;;;;;5031088;28;20494;-88
2022/10/29 03:10:05;;;;;;;115.78;13.07;;;13.50;99.90;;;;;;5026238;28;20077;-88
2022/10/29 03:12:31;;;;;;;207.40;17.23;;;13.40;99.90;;;;;;5037024;28;20047;-89
2022/10/29 03:14:57;;;;;;;180.85;13.77;;;13.40;99.90;;;;;;5021854;28;20119;-88
2022/10/29 03:17:22;;;;;;;153.93;14.43;;;13.40;99.90;;;;;;5035206;28;20552;-87
2022/10/29 03:19:48;;;;;;;226.15;16.40;;;13.40;99.90;;;;;;5022693;28;20118;-88
2022/10/29 03:22:14;;;;;;;188.48;15.00;;;13.40;99.90;;;;;;5021595;28;20071;-88
2022/10/29 03:24:39;;;;;;;161.30;13.57;;;13.40;99.90;;;;;;5037791;28;20049;-88
2022/10/29 03:27:05;;;;;;;130.05;13.40;;;13.40;99.90;;;;;;5050434;28;20123;-88
2022/10/29 03:29:30;;;;;;;139.57;13.80;;;13.30;99.90;;;;;;5036502;28;20049;-88
2022/10/29 03:31:56;;;;;;;104.30;13.02;;;13.30;99.90;;;;;;5020483;28;20453;-88
2022/10/29 03:34:22;;;;;;;126.00;12.23;;;13.30;99.90;;;;;;5037418;28;20049;-88
2022/10/29 03:36:48;;;;;;;176.27;14.90;;;13.30;99.90;;;;;;5037496;28;20045;-89
2022/10/29 03:39:13;;;;;;;91.07;12.45;;;13.20;99.90;;;;;;5036428;28;20470;-88
2022/10/29 03:41:39;;;;;;;95.40;12.32;;;13.20;99.90;;;;;;5053425;28;20045;-88
2022/10/29 03:44:05;;;;;;;116.80;12.70;;;13.20;99.90;;;;;;5056266;28;20048;-87
2022/10/29 03:46:30;;;;;;;130.20;13.43;;;13.20;99.90;;;;;;5040046;28;20106;-88
2022/10/29 03:48:56;;;;;;;83.85;11.70;;;13.20;99.90;;;;;;5057515;28;20048;-88
2022/10/29 03:51:22;;;;;;;68.57;11.50;;;13.10;99.90;;;;;;5040108;28;20040;-88
2022/10/29 03:53:47;;;;;;;99.65;12.13;;;13.10;99.90;;;;;;5056400;28;20052;-88
2022/10/29 03:56:13;;;;;;;101.50;11.23;;;13.10;99.90;;;;;;5056260;28;20546;-87
2022/10/29 03:58:39;;;;;;;92.15;11.75;;;13.10;99.90;;;;;;5029739;28;20510;-87
2022/10/29 04:01:06;;;;;;;84.75;10.05;;;13.10;99.90;;;;;;5032435;28;20044;-88
2022/10/29 04:03:34;;;;;;;86.60;10.63;;;13.10;99.90;;;;;;5026492;28;20049;-88
2022/10/29 04:06:06;;;;;;;62.70;9.60;;;13.10;99.90;;;;;;5038377;28;20127;-88
2022/10/29 04:08:32;;;;;;;77.38;10.77;;;13.00;99.90;;;;;;5028636;28;20497;-88
2022/10/29 04:10:58;;;;;;;89.38;11.23;;;13.00;99.90;;;;;;5037306;28;20052;-88
2022/10/29 04:13:23;;;;;;;59.05;11.65;;;13.00;99.90;;;;;;5045729;28;20045;-88
2022/10/29 04:15:52;;;;;;;113.55;13.00;;;13.00;99.90;;;;;;5020684;28;20037;-88
2022/10/29 04:18:18;;;;;;;105.05;10.95;;;12.90;99.90;;;;;;5048683;28;20047;-88
2022/10/29 04:20:44;;;;;;;69.70;11.85;;;12.90;99.90;;;;;;5018980;28;20498;-88
2022/10/29 04:23:10;;;;;;;67.85;10.43;;;12.90;99.90;;;;;;5032904;28;20043;-88
2022/10/29 04:25:35;;;;;;;60.75;10.95;;;12.90;99.90;;;;;;5024323;28;20052;-88
2022/10/29 04:28:01;;;;;;;96.13;11.73;;;12.90;99.90;;;;;;5041286;28;20060;-89
2022/10/29 04:30:27;;;;;;;82.22;14.10;;;12.90;99.90;;;;;;5029478;28;20033;-88
2022/10/29 04:32:57;;;;;;;72.65;11.50;;;12.90;99.90;;;;;;5017675;28;20045;-88
2022/10/29 04:35:24;;;;;;;63.08;10.88;;;13.00;99.90;;;;;;5018236;28;20102;-88
2022/10/29 04:37:50;;;;;;;57.85;10.63;;;13.00;99.90;;;;;;5036702;28;20481;-89
2022/10/29 04:40:16;;;;;;;60.50;10.00;;;13.00;99.90;;;;;;5042490;28;20037;-88
2022/10/29 04:42:41;;;;;;;49.95;10.95;;;13.00;99.90;;;;;;5037911;28;20092;-88
2022/10/29 04:45:07;;;;;;;64.15;10.10;;;12.90;99.90;;;;;;5053757;28;20051;-88
2022/10/29 04:47:33;;;;;;;85.85;10.68;;;12.90;99.90;;;;;;5038792;28;20082;-88
2022/10/29 04:49:59;;;;;;;78.82;10.45;;;12.90;99.90;;;;;;5036286;28;20129;-88
2022/10/29 04:52:25;;;;;;;74.38;9.55;;;12.90;99.90;;;;;;5054388;28;20166;-88
2022/10/29 04:54:50;;;;;;;69.18;10.27;;;12.90;99.90;;;;;;5036837;28;20036;-88
2022/10/29 04:57:16;;;;;;;75.50;10.90;;;12.90;99.90;;;;;;5022633;28;20416;-88
2022/10/29 04:59:42;;;;;;;89.45;11.13;;;12.90;99.90;;;;;;5001602;28;20513;-88
2022/10/29 05:02:09;;;;;;;72.65;9.38;;;13.00;99.90;;;;;;5003152;28;20053;-88
2022/10/29 05:04:35;;;;;;;74.43;9.98;;;13.00;99.90;;;;;;5017773;28;20052;-87
2022/10/29 05:07:00;;;;;;;122.63;11.38;;;13.00;99.90;;;;;;5016467;28;20045;-88
2022/10/29 05:09:26;;;;;;;151.35;12.95;;;13.00;99.90;;;;;;5017061;28;20045;-88
2022/10/29 05:11:52;;;;;;;146.13;12.50;;;13.00;99.90;;;;;;5036857;28;20052;-88
2022/10/29 05:14:17;;;;;;;96.47;11.65;;;13.00;99.90;;;;;;5019336;28;20045;-89
2022/10/29 05:16:43;;;;;;;79.63;10.27;;;13.00;99.90;;;;;;5026552;28;20049;-88
2022/10/29 05:19:09;;;;;;;65.78;9.80;;;13.00;99.90;;;;;;5024587;28;20103;-88
2022/10/29 05:21:34;;;;;;;104.00;11.48;;;13.00;99.90;;;;;;5022031;28;20083;-88
2022/10/29 05:24:00;;;;;;;101.93;11.93;;;13.00;99.90;;;;;;5004335;28;20037;-88
2022/10/29 05:26:26;;;;;;;94.82;12.00;;;12.90;99.90;;;;;;5016262;28;20478;-88
2022/10/29 05:28:51;;;;;;;108.82;12.35;;;12.90;99.90;;;;;;5021458;28;20405;-88
2022/10/29 05:31:17;;;;;;;88.50;11.98;;;12.90;99.90;;;;;;5002771;28;20053;-88
2022/10/29 05:33:44;;;;;;;70.53;10.52;;;12.90;99.90;;;;;;5001800;28;20045;-88
2022/10/29 05:36:10;;;;;;;89.15;12.68;;;12.90;99.90;;;;;;5020948;28;20041;-87
2022/10/29 05:38:36;;;;;;;119.03;12.65;;;12.90;99.90;;;;;;5035275;28;20051;-88
2022/10/29 05:41:01;;;;;;;92.22;12.07;;;12.90;99.90;;;;;;5019610;28;20045;-88
2022/10/29 05:43:27;;;;;;;50.35;9.75;;;12.90;99.90;;;;;;5022052;28;20045;-88
2022/10/29 05:45:53;;;;;;;63.38;10.90;;;12.90;99.90;;;;;;5039975;28;20112;-88
2022/10/29 05:48:19;;;;;;;42.45;10.25;;;12.90;99.90;;;;;;5022498;28;20041;-87
2022/10/29 05:50:45;;;;;;;57.65;11.93;;;12.80;99.90;;;;;;5008008;28;20037;-87
2022/10/29 05:53:13;;;;;;;56.03;11.95;;;12.80;99.90;;;;;;5016887;28;20118;-87
2022/10/29 05:55:39;;;;;;;68.18;11.82;;;12.80;99.90;;;;;;5001835;28;20168;-88
2022/10/29 05:58:08;;;;;;;47.65;10.90;;;12.80;99.90;;;;;;5025071;28;20099;-88
2022/10/29 06:00:36;;;;;;;85.18;13.38;;;12.80;99.90;;;;;;5022643;28;20049;-88
2022/10/29 06:03:02;;;;;;;62.65;11.43;;;12.80;99.90;;;;;;5038338;28;20067;-88
2022/10/29 06:05:27;;;;;;;79.22;11.35;;;12.80;99.90;;;;;;5021719;28;20048;-87
2022/10/29 06:07:54;;;;;;;91.63;12.70;;;13.20;99.90;;;;;;5023560;28;20141;-88
2022/10/29 06:10:20;;;;;;;54.40;12.68;;;12.70;99.90;;;;;;5023808;28;20029;-88
2022/10/29 06:12:46;;;;;;;75.22;12.90;;;12.70;99.90;;;;;;5040929;28;20049;-88
2022/10/29 06:15:12;;;;;;;70.00;12.10;;;12.70;99.90;;;;;;5041295;28;20047;-87
2022/10/29 06:17:42;;;;;;;58.38;11.82;;;12.60;99.90;;;;;;5023776;28;20155;-88
2022/10/29 06:20:09;;;;;;;59.38;11.75;;;12.60;99.90;;;;;;5020955;28;20048;-88
2022/10/29 06:22:35;;;;;;;94.68;12.02;;;12.70;99.90;;;;;;5043190;28;20131;-88
2022/10/29 06:25:01;;;;;;;64.53;11.98;;;12.70;99.90;;;;;;5021229;28;20127;-87
2022/10/29 06:27:26;;;;;;;67.32;11.80;;;12.70;99.90;;;;;;5039367;28;20044;-88
2022/10/29 06:29:52;;;;;;;70.35;14.10;;;12.70;99.90;;;;;;5038360;28;20041;-88
2022/10/29 06:32:18;;;;;;;79.82;12.50;;;12.70;99.90;;;;;;5021696;28;20052;-88
2022/10/29 06:34:43;;;;;;;69.30;11.55;;;12.70;99.90;;;;;;5021239;28;20044;-88
2022/10/29 06:37:09;;;;;;;61.45;11.93;;;12.70;99.90;;;;;;5021049;28;20499;-88
2022/10/29 06:39:35;;;;;;;73.00;12.73;;;12.70;99.90;;;;;;5020514;28;20402;-88
2022/10/29 06:42:01;;;;;;;68.43;12.13;;;12.70;99.90;;;;;;5021053;28;20178;-88
2022/10/29 06:44:27;;;;;;;72.75;12.98;;;13.60;99.90;;;;;;5021689;28;20048;-87
2022/10/29 06:46:53;;;;;;;62.08;10.68;;;12.70;99.90;;;;;;5038700;28;20506;-88
2022/10/29 06:49:19;;;;;;;60.97;12.52;;;12.80;99.90;;;;;;5037661;28;20045;-87
2022/10/29 06:51:45;;;;;;;63.45;11.27;;;12.80;99.90;;;;;;5020901;28;20033;-87
2022/10/29 06:54:10;;;;;;;59.88;11.43;;;12.80;99.90;;;;;;5018972;28;20053;-88
2022/10/29 06:56:36;;;;;;;66.35;11.30;;;12.80;99.90;;;;;;5025633;28;20383;-88
2022/10/29 06:59:02;;;;;;;42.13;10.25;;;12.80;99.90;;;;;;5042099;28;20092;-87
2022/10/29 07:01:29;;;;;;;64.90;10.45;;;12.90;99.90;;;;;;5020789;28;20045;-87
2022/10/29 07:03:54;;;;;;;77.80;11.52;;;12.90;99.90;;;;;;5020546;28;20040;-87
2022/10/29 07:06:20;;;;;;;64.97;11.50;;;13.50;99.90;;;;;;5020409;28;20128;-88
2022/10/29 07:08:46;;;;;;;59.75;12.00;;;12.90;99.90;;;;;;5020117;28;20076;-88
2022/10/29 07:11:13;;;;;;;68.25;12.48;;;12.90;99.90;;;;;;5037243;28;20048;-88
2022/10/29 07:13:38;;;;;;;80.72;11.57;;;13.00;99.90;;;;;;5019479;28;20090;-88
2022/10/29 07:16:04;;;;;;;71.68;12.05;;;13.00;99.90;;;;;;5019934;28;20136;-87
2022/10/29 07:18:31;;;;;;;79.53;13.25;;;13.00;99.90;;;;;;5021165;28;20449;-88
2022/10/29 07:20:57;;;;;;;86.78;13.13;;;13.00;99.90;;;;;;5021896;28;20179;-88
2022/10/29 07:23:22;;;;;;;66.40;12.45;;;13.10;99.90;;;;;;5021585;28;20083;-88
2022/10/29 07:25:51;;;;;;;82.57;13.15;;;13.20;99.90;;;;;;5035407;28;20048;-88
2022/10/29 07:28:22;;;;;;;82.25;12.82;;;13.10;99.90;;;;;;5020332;28;20406;-87
2022/10/29 07:30:49;;;;;;;87.88;12.85;;;13.10;99.90;;;;;;5037856;28;20041;-88
2022/10/29 07:33:15;;;;;;;75.55;13.45;;;13.20;99.90;;;;;;5020445;28;20056;-88
2022/10/29 07:35:42;;;;;;;70.32;14.18;;;13.20;99.90;;;;;;5022215;28;20147;-87
2022/10/29 07:38:10;;;;;;;88.82;14.27;;;13.20;99.90;;;;;;5038872;28;20131;-87
2022/10/29 07:40:44;;;;;;;108.28;14.75;;;13.20;99.90;;;;;;5039074;28;20133;-87
2022/10/29 07:43:10;;;;;;;86.97;15.50;;;13.20;99.90;;;;;;5039461;28;20048;-87
2022/10/29 07:45:36;;;;;;;84.18;14.68;;;13.30;99.90;;;;;;5039175;28;20048;-84
2022/10/29 07:48:04;;;;;;;83.95;15.85;;;13.30;99.90;;;;;;5040143;28;20059;-87
2022/10/29 07:50:30;;;;;;;91.93;14.93;;;13.30;99.90;;;;;;5039653;28;20135;-87
2022/10/29 07:52:59;;;;;;;94.03;14.95;;;13.40;99.90;;;;;;5038970;28;20135;-87
2022/10/29 07:55:24;;;;;;;96.03;16.20;;;13.40;99.90;;;;;;5058391;28;20048;-87
2022/10/29 07:58:00;;;;;;;117.30;15.90;;;13.50;99.90;;;;;;5054037;28;20540;-87
2022/10/29 08:00:31;;;;;;;99.40;16.70;;;13.50;99.90;;;;;;5036580;28;20497;-87
2022/10/29 08:02:57;;;;;;;97.57;16.02;;;13.60;99.90;;;;;;5019718;28;20383;-87
2022/10/29 08:05:24;;;;;;;97.38;16.48;;;14.40;99.90;;;;;;5019471;28;20037;-87
2022/10/29 08:07:53;;;;;;;103.10;17.25;;;13.60;99.90;;;;;;5034231;28;20045;-87
2022/10/29 08:10:19;;;;;;;90.38;16.77;;;13.60;99.90;;;;;;5004387;28;20038;-86
2022/10/29 08:12:53;;;;;;;82.13;16.83;;;13.60;99.90;;;;;;4999244;28;20490;-87
2022/10/29 08:15:19;;;;;;;100.95;17.85;;;13.70;99.90;;;;;;5017412;28;20037;-88
2022/10/29 08:17:46;;;;;;;106.00;18.70;;;13.70;99.90;;;;;;5009480;28;20091;-89
2022/10/29 08:20:12;;;;;;;75.18;17.80;;;13.70;99.90;;;;;;5035777;28;20037;-89
2022/10/29 08:22:38;;;;;;;82.35;18.13;;;13.80;99.90;;;;;;5036270;28;20047;-89
2022/10/29 08:25:04;;;;;;;81.65;18.85;;;13.80;99.90;;;;;;5019565;28;20040;-86
2022/10/29 08:27:30;;;;;;;80.00;19.08;;;13.80;99.90;;;;;;5053766;28;20128;-86
2022/10/29 08:29:56;;;;;;;74.80;19.05;;;13.80;99.90;;;;;;5017855;28;20104;-85
2022/10/29 08:32:21;;;;;;;77.85;20.70;;;13.90;99.90;;;;;;5018766;28;20044;-85
2022/10/29 08:34:47;;;;;;;79.78;21.60;;;13.90;99.90;;;;;;5018337;28;20128;-85
2022/10/29 08:37:13;;;;;;;81.93;24.08;;;13.90;99.90;;;;;;5034640;28;20037;-85
2022/10/29 08:39:38;;;;;;;80.93;23.65;;;13.90;99.90;;;;;;5032373;28;20391;-88
2022/10/29 08:42:04;;;;;;;85.18;25.38;;;14.00;99.90;;;;;;5018576;28;20075;-87
2022/10/29 08:44:31;;;;;;;84.50;25.27;;;14.00;99.90;;;;;;5018081;28;20098;-87
2022/10/29 08:47:19;;;;;;;82.97;25.33;;;14.00;99.90;;;;;;5032920;28;20053;-87
2022/10/29 08:50:16;;;;;;;88.90;25.33;;;14.20;99.90;;;;;;5017336;28;20132;-86
2022/10/29 08:52:44;;;;;;;72.57;25.30;;;14.20;99.90;;;;;;5020660;28;20588;-87
2022/10/29 08:55:20;;;;;;;63.20;25.45;;;14.30;99.90;;;;;;5003064;28;20168;-86
2022/10/29 08:57:58;;;;;;;66.85;24.77;;;14.30;99.90;;;;;;5024363;28;20041;-87
2022/10/29 09:00:37;;;;;;;80.45;25.75;;;14.40;99.90;;;;;;5038851;28;20088;-86
2022/10/29 09:03:10;;;;;;;67.80;25.65;;;14.40;99.90;;;;;;5010860;28;20321;-87
2022/10/29 09:05:58;;;;;;;72.45;25.02;;;14.40;99.90;;;;;;5027382;28;20055;-87
2022/10/29 09:08:52;;;;;;;68.50;24.48;;;14.40;99.90;;;;;;5021455;28;20094;-86
2022/10/29 09:11:27;;;;;;;65.88;26.95;;;14.40;99.90;;;;;;5021908;28;20048;-87
2022/10/29 09:14:18;;;;;;;57.92;25.67;;;14.40;99.90;;;;;;5021444;28;20502;-87
2022/10/29 09:16:51;;;;;;;65.85;26.45;;;14.40;99.90;;;;;;5022054;28;20040;-87
2022/10/29 09:19:19;;;;;;;67.00;26.00;;;14.40;99.90;;;;;;5021427;28;20045;-87
2022/10/29 09:22:07;;;;;;;66.38;25.55;;;14.40;99.90;;;;;;5041123;28;20469;-87
2022/10/29 09:24:48;;;;;;;65.10;26.08;;;14.50;99.90;;;;;;5038004;28;20124;-87
2022/10/29 09:27:22;;;;;;;64.00;26.45;;;14.50;99.90;;;;;;5038113;28;20093;-87
2022/10/29 09:30:08;;;;;;;62.78;26.58;;;14.50;99.90;;;;;;5021176;28;20037;-86
2022/10/29 09:32:59;;;;;;;66.97;27.13;;;14.50;99.90;;;;;;5020973;28;20047;-86
2022/10/29 09:35:39;;;;;;;68.03;26.50;;;14.60;99.90;;;;;;5037506;28;20045;-86
2022/10/29 09:38:18;;;;;;;54.20;24.92;;;14.60;99.90;;;;;;5054982;28;20041;-86
2022/10/29 09:40:44;;;;;;;53.17;25.13;;;14.70;99.90;;;;;;5021229;28;20041;-86
2022/10/29 09:43:18;;;;;;;59.80;24.85;;;14.80;99.90;;;;;;5021105;28;20045;-86
2022/10/29 09:46:26;;;;;;;57.25;25.95;;;14.80;99.90;;;;;;5037555;28;20080;-85
2022/10/29 09:49:02;;;;;;;51.03;25.20;;;14.80;99.90;;;;;;5007223;28;20117;-86
2022/10/29 09:51:45;;;;;;;48.83;23.83;;;14.80;99.90;;;;;;5020994;28;20056;-86
2022/10/29 09:54:11;;;;;;;50.20;23.58;;;14.80;99.90;;;;;;5020793;28;20120;-86
2022/10/29 09:56:41;;;;;;;50.30;23.80;;;14.80;99.90;;;;;;5021557;28;20060;-86
2022/10/29 09:59:28;;;;;;;43.72;21.88;;;14.80;99.90;;;;;;5034698;28;20087;-85
2022/10/29 10:01:54;;;;;;;51.17;22.10;;;14.80;99.90;;;;;;5056856;28;20545;-88
2022/10/29 10:04:44;;;;;;;49.90;22.67;;;14.80;99.90;;;;;;5057629;28;20511;-86
2022/10/29 10:07:15;;;;;;;45.42;22.08;;;14.80;99.90;;;;;;5041970;28;20044;-86
2022/10/29 10:09:58;;;;;;;42.90;21.15;;;14.90;99.90;;;;;;5041955;28;20063;-86
2022/10/29 10:12:36;;;;;;;50.33;22.25;;;15.00;99.90;;;;;;5040619;28;20044;-87
2022/10/29 10:15:15;;;;;;;43.33;21.27;;;15.10;99.90;;;;;;5040282;28;20068;-86
2022/10/29 10:18:01;;;;;;;42.85;20.25;;;15.20;99.90;;;;;;5057189;28;20048;-86
2022/10/29 10:20:33;;;;;;;;;;;15.30;99.90;;;;;;5057242;28;20123;-86
2022/10/29 10:22:59;;;;;;;41.35;20.00;;;15.40;99.90;;;;;;5056939;28;19942;-85
2022/10/29 10:25:31;;;;;;;44.15;20.73;;;;;;;;;;5041512;28;20036;-88
2022/10/29 10:27:57;;;;;;;33.92;20.00;;;;;;;;;;5059439;28;20447;-87
2022/10/29 10:30:25;;;;;;;40.33;20.10;;;;;;;;;;5058482;28;20063;-88
2022/10/29 10:32:51;;;;;;;41.00;18.83;;;;;;;;;;5045387;28;20044;-88
2022/10/29 10:35:25;;;;;;;33.83;16.92;;;;;;;;;;5046037;28;20045;-88
2022/10/29 10:37:51;;;;;;;37.33;17.15;;;;;;;;;;5041848;28;20040;-88
2022/10/29 10:40:21;;;;;;;34.67;17.35;;;;;;;;;;5058212;28;20440;-87
2022/10/29 10:42:47;;;;;;;33.95;15.82;;;;;;;;;;5042167;28;20040;-88
2022/10/29 10:45:24;;;;;;;29.48;15.43;;;;;;;;;;5035817;28;20466;-88
2022/10/29 10:47:56;;;;;;;28.92;15.00;;;;;;;;;;5021411;28;20076;-88
2022/10/29 10:50:29;;;;;;;30.67;14.48;;;;;;;;;;5037597;28;20075;-87
2022/10/29 10:52:56;;;;;;;28.50;14.55;;;;;;;;;;5020825;28;20045;-87
2022/10/29 10:55:27;;;;;;;29.08;13.75;;;;;;;;;;5020826;28;20041;-86
2022/10/29 10:58:12;;;;;;;30.88;14.40;;;;;;;;;;5020674;28;20060;-87
2022/10/29 11:00:44;;;;;;;30.35;14.13;;;;;;;;;;5021450;28;20067;-88
2022/10/29 11:03:16;;;;;;;27.55;14.38;;;;;;;;;;5038709;28;20041;-88
2022/10/29 11:05:48;;;;;;;26.70;13.63;;;;;;;;;;5021143;28;20068;-88
2022/10/29 11:08:25;;;;;;;25.35;12.82;;;;;;;;;;5020695;28;20132;-88
2022/10/29 11:10:51;;;;;;;25.08;12.95;;;;;;;;;;5037653;28;20409;-87
2022/10/29 11:13:24;;;;;;;25.35;12.45;;;;;;;;;;5019552;28;20048;-87
2022/10/29 11:15:56;;;;;;;21.92;11.15;;;;;;;;;;5037710;28;20049;-87
2022/10/29 11:18:33;;;;;;;21.63;11.45;;;;;;;;;;5036971;28;20051;-87
2022/10/29 11:21:03;;;;;;;20.40;11.05;;;;;;;;;;5037366;28;20432;-87
2022/10/29 11:23:35;;;;;;;28.92;11.65;;;;;;;;;;5020053;28;20108;-87
2022/10/29 11:26:21;;;;;;;21.45;10.35;;;;;;;;;;5020415;28;20122;-87
2022/10/29 11:29:14;;;;;;;20.48;9.85;;;;;;;;;;5036439;28;20075;-87
2022/10/29 11:31:42;;;;;;;21.00;10.18;;;;;;;;;;5034897;28;20060;-87
2022/10/29 11:34:29;;;;;;;20.77;10.07;;;;;;;;;;5019128;28;20049;-88
2022/10/29 11:37:10;;;;;;;19.70;9.23;;;;;;;;;;5020138;28;20063;-87
2022/10/29 11:39:43;;;;;;;19.90;9.48;;;;;;;;;;5037412;28;20037;-87
2022/10/29 11:42:09;;;;;;;17.08;8.73;;;;;;;;;;5037656;28;20045;-87
2022/10/29 11:44:38;;;;;;;17.38;8.90;;;;;;;;;;5020710;28;20371;-87
2022/10/29 11:47:13;;;;;;;19.90;8.70;;;;;;;;;;5021234;28;20037;-88
2022/10/29 11:49:39;;;;;;;;;;;;;;;;;;5037049;28;20437;-87
2022/10/29 11:52:05;;;;;;;;;;;;;;;;;;5020187;28;19984;-87
2022/10/29 11:54:50;;;;;;;20.13;8.45;;;;;;;;;;5019195;28;19925;-87
2022/10/29 11:57:16;;;;;;;19.55;7.82;;;;;;;;;;5019925;28;20049;-87
2022/10/29 12:00:01;;;;;;;19.38;8.57;;;;;;;;;;5019580;28;20087;-87
2022/10/29 12:02:55;;;;;;;21.70;7.93;;;;;;;;;;5019682;28;20048;-86
2022/10/29 12:05:26;;;;;;;18.17;8.27;;;;;;;;;;5030368;28;20049;-87
2022/10/29 12:07:59;;;;;;;16.15;7.55;;;;;;;;;;5019112;28;20095;-87
2022/10/29 12:10:43;;;;;;;18.30;8.10;;;;;;;;;;5035766;28;20048;-86
2022/10/29 12:13:39;;;;;;;19.48;7.85;;;;;;;;;;5020215;28;20049;-87
2022/10/29 12:16:14;;;;;;;19.25;8.57;;;;;;;;;;5016317;28;20049;-89
2022/10/29 12:18:43;;;;;;;17.77;8.07;;;;;;;;;;5019651;28;20041;-89
2022/10/29 12:21:14;;;;;;;19.73;8.55;;;;;;;;;;5019827;28;20087;-88
2022/10/29 12:23:50;;;;;;;15.05;8.32;;;;;;;;;;5022359;28;20512;-88
2022/10/29 12:26:16;;;;;;;20.40;8.30;;;;;;;;;;5056288;28;20570;-88
2022/10/29 12:28:53;;;;;;;17.95;7.57;;;;;;;;;;5037154;28;20132;-88
2022/10/29 12:31:30;;;;;;;17.83;8.05;;;;;;;;;;5052527;28;20383;-88
2022/10/29 12:34:16;;;;;;;18.45;8.43;;;;;;;;;;5036087;28;20048;-88
2022/10/29 12:36:52;;;;;;;17.60;8.40;;;;;;;;;;5037050;28;20048;-88
2022/10/29 12:39:21;;;;;;;19.73;8.38;;;;;;;;;;5053160;28;20055;-88
2022/10/29 12:41:49;;;;;;;18.60;9.00;;;;;;;;;;5052519;28;20063;-88
2022/10/29 12:44:25;;;;;;;19.02;9.23;;;;;;;;;;5051898;28;20053;-87
2022/10/29 12:46:51;;;;;;;;;;;;;;;;;;5036014;28;20103;-88
2022/10/29 12:49:17;;;;;;;18.23;8.40;;;;;;;;;;5019202;28;19924;-87
2022/10/29 12:51:49;;;;;;;17.90;9.20;;;;;;;;;;5052253;28;20052;-88
2022/10/29 12:54:30;;;;;;;16.15;7.90;;;;;;;;;;5034961;28;20516;-87
2022/10/29 12:57:03;;;;;;;17.20;8.02;;;;;;;;;;5035404;28;20068;-87
2022/10/29 12:59:29;;;;;;;13.13;7.88;;;;;;;;;;5033530;28;20048;-88
2022/10/29 13:01:55;;;;;;;19.38;7.95;;;;;;;;;;5072986;28;20105;-87
2022/10/29 13:04:22;;;;;;;22.73;8.20;;;;;;;;;;5037364;28;20048;-88